sensor_id;sensor_type;location;lat;lon;timestamp;P1;durP1;ratioP1;P2;durP2;ratioP2
57249;SDS011;43102;52.014;-0.680;2022-11-21T00:00:00;8.20;;;3.00;;
57249;SDS011;43102;52.014;-0.680;2022-11-21T00:01:10;8.20;;;3.00;;
57249;SDS011;43102;52.014;-0.680;2022-11-21T00:02:00;8.20;;;3.00;;
57249;SDS011;43102;52.014;-0.680;2022-11-21T00:03:01;8.20;;;3.00;;
57249;SDS011;43102;52.014;-0.680;2022-11-21T00:04:00;8.20;;;3.00;;
57249;SDS011;43102;52.014;-0.680;2022-11-21T00:05:00;8.20;;;3.00;;
57249;SDS011;43102;52.014;-0.680;2022-11-21T00:06:02;8.20;;;3.00;;
57249;SDS011;43102;52.014;-0.680;2022-11-21T00:07:00;8.20;;;3.00;;
57249;SDS011;43102;52.014;-0.680;2022-11-21T00:08:00;8.20;;;3.00;;
57249;SDS011;43102;52.014;-0.680;2022-11-21T00:09:00;8.20;;;3.00;;
57249;SDS011;43102;52.014;-0.680;2022-11-21T00:10:00;6.30;;;3.40;;
57249;SDS011;43102;52.014;-0.680;2022-11-21T00:11:00;6.30;;;3.40;;
57249;SDS011;43102;52.014;-0.680;2022-11-21T00:12:00;6.30;;;3.40;;
57249;SDS011;43102;52.014;-0.680;2022-11-21T00:13:00;6.30;;;3.40;;
57249;SDS011;43102;52.014;-0.680;2022-11-21T00:14:00;6.30;;;3.40;;
57249;SDS011;43102;52.014;-0.680;2022-11-21T00:15:00;6.30;;;3.40;;
57249;SDS011;43102;52.014;-0.680;2022-11-21T00:16:05;6.30;;;3.40;;
57249;SDS011;43102;52.014;-0.680;2022-11-21T00:17:00;6.30;;;3.40;;
57249;SDS011;43102;52.014;-0.680;2022-11-21T00:18:02;6.30;;;3.40;;
57249;SDS011;43102;52.014;-0.680;2022-11-21T00:19:00;6.30;;;3.40;;
57249;SDS011;43102;52.014;-0.680;2022-11-21T00:20:00;6.30;;;3.40;;
57249;SDS011;43102;52.014;-0.680;2022-11-21T00:21:10;6.30;;;3.40;;
57249;SDS011;43102;52.014;-0.680;2022-11-21T00:22:00;6.30;;;3.40;;
57249;SDS011;43102;52.014;-0.680;2022-11-21T00:23:00;6.30;;;3.40;;
57249;SDS011;43102;52.014;-0.680;2022-11-21T00:24:00;6.30;;;3.40;;
57249;SDS011;43102;52.014;-0.680;2022-11-21T00:25:00;6.30;;;3.40;;
57249;SDS011;43102;52.014;-0.680;2022-11-21T00:26:04;6.30;;;3.40;;
57249;SDS011;43102;52.014;-0.680;2022-11-21T00:27:00;6.30;;;3.40;;
57249;SDS011;43102;52.014;-0.680;2022-11-21T00:28:00;6.30;;;3.40;;
57249;SDS011;43102;52.014;-0.680;2022-11-21T00:29:00;6.30;;;3.40;;
57249;SDS011;43102;52.014;-0.680;2022-11-21T00:30:00;6.30;;;3.40;;
57249;SDS011;43102;52.014;-0.680;2022-11-21T00:31:00;6.30;;;3.40;;
57249;SDS011;43102;52.014;-0.680;2022-11-21T00:32:00;6.30;;;3.40;;
57249;SDS011;43102;52.014;-0.680;2022-11-21T00:33:00;6.30;;;3.40;;
57249;SDS011;43102;52.014;-0.680;2022-11-21T00:34:00;6.30;;;3.40;;
57249;SDS011;43102;52.014;-0.680;2022-11-21T00:35:00;6.30;;;3.40;;
57249;SDS011;43102;52.014;-0.680;2022-11-21T00:36:08;6.30;;;3.40;;
57249;SDS011;43102;52.014;-0.680;2022-11-21T00:37:00;6.30;;;3.40;;
57249;SDS011;43102;52.014;-0.680;2022-11-21T00:38:00;6.30;;;3.40;;
57249;SDS011;43102;52.014;-0.680;2022-11-21T00:39:00;6.30;;;3.40;;
57249;SDS011;43102;52.014;-0.680;2022-11-21T00:40:00;8.80;;;4.30;;
57249;SDS011;43102;52.014;-0.680;2022-11-21T00:41:00;8.80;;;4.30;;
57249;SDS011;43102;52.014;-0.680;2022-11-21T00:42:00;8.80;;;4.30;;
57249;SDS011;43102;52.014;-0.680;2022-11-21T00:43:00;8.80;;;4.30;;
57249;SDS011;43102;52.014;-0.680;2022-11-21T00:44:00;8.80;;;4.30;;
57249;SDS011;43102;52.014;-0.680;2022-11-21T00:45:00;8.80;;;4.30;;
57249;SDS011;43102;52.014;-0.680;2022-11-21T00:46:01;8.80;;;4.30;;
57249;SDS011;43102;52.014;-0.680;2022-11-21T00:47:00;8.80;;;4.30;;
57249;SDS011;43102;52.014;-0.680;2022-11-21T00:48:00;8.80;;;4.30;;
57249;SDS011;43102;52.014;-0.680;2022-11-21T00:49:01;8.80;;;4.30;;
57249;SDS011;43102;52.014;-0.680;2022-11-21T00:50:00;8.80;;;4.30;;
57249;SDS011;43102;52.014;-0.680;2022-11-21T00:51:00;8.80;;;4.30;;
57249;SDS011;43102;52.014;-0.680;2022-11-21T00:52:00;8.80;;;4.30;;
57249;SDS011;43102;52.014;-0.680;2022-11-21T00:53:00;8.80;;;4.30;;
57249;SDS011;43102;52.014;-0.680;2022-11-21T00:54:00;8.80;;;4.30;;
57249;SDS011;43102;52.014;-0.680;2022-11-21T00:55:00;8.80;;;4.30;;
57249;SDS011;43102;52.014;-0.680;2022-11-21T00:56:00;8.80;;;4.30;;
57249;SDS011;43102;52.014;-0.680;2022-11-21T00:57:00;8.80;;;4.30;;
57249;SDS011;43102;52.014;-0.680;2022-11-21T00:58:00;8.80;;;4.30;;
57249;SDS011;43102;52.014;-0.680;2022-11-21T00:59:00;8.80;;;4.30;;
57249;SDS011;43102;52.014;-0.680;2022-11-21T01:00:00;8.80;;;4.30;;
57249;SDS011;43102;52.014;-0.680;2022-11-21T01:01:02;8.80;;;4.30;;
57249;SDS011;43102;52.014;-0.680;2022-11-21T01:02:00;8.80;;;4.30;;
57249;SDS011;43102;52.014;-0.680;2022-11-21T01:03:00;8.80;;;4.30;;
57249;SDS011;43102;52.014;-0.680;2022-11-21T01:04:00;8.80;;;4.30;;
57249;SDS011;43102;52.014;-0.680;2022-11-21T01:05:00;8.80;;;4.30;;
57249;SDS011;43102;52.014;-0.680;2022-11-21T01:06:02;8.80;;;4.30;;
57249;SDS011;43102;52.014;-0.680;2022-11-21T01:07:00;8.80;;;4.30;;
57249;SDS011;43102;52.014;-0.680;2022-11-21T01:08:00;8.80;;;4.30;;
57249;SDS011;43102;52.014;-0.680;2022-11-21T01:09:00;8.80;;;4.30;;
57249;SDS011;43102;52.014;-0.680;2022-11-21T01:10:00;7.50;;;3.40;;
57249;SDS011;43102;52.014;-0.680;2022-11-21T01:11:04;7.50;;;3.40;;
57249;SDS011;43102;52.014;-0.680;2022-11-21T01:12:00;7.50;;;3.40;;
57249;SDS011;43102;52.014;-0.680;2022-11-21T01:13:00;7.50;;;3.40;;
57249;SDS011;43102;52.014;-0.680;2022-11-21T01:14:00;7.50;;;3.40;;
57249;SDS011;43102;52.014;-0.680;2022-11-21T01:15:00;7.50;;;3.40;;
57249;SDS011;43102;52.014;-0.680;2022-11-21T01:16:11;7.50;;;3.40;;
57249;SDS011;43102;52.014;-0.680;2022-11-21T01:17:00;7.50;;;3.40;;
57249;SDS011;43102;52.014;-0.680;2022-11-21T01:18:00;7.50;;;3.40;;
57249;SDS011;43102;52.014;-0.680;2022-11-21T01:19:00;7.50;;;3.40;;
57249;SDS011;43102;52.014;-0.680;2022-11-21T01:20:00;7.50;;;3.40;;
57249;SDS011;43102;52.014;-0.680;2022-11-21T01:21:01;7.50;;;3.40;;
57249;SDS011;43102;52.014;-0.680;2022-11-21T01:22:00;7.50;;;3.40;;
57249;SDS011;43102;52.014;-0.680;2022-11-21T01:23:00;7.50;;;3.40;;
57249;SDS011;43102;52.014;-0.680;2022-11-21T01:24:01;7.50;;;3.40;;
57249;SDS011;43102;52.014;-0.680;2022-11-21T01:25:00;7.50;;;3.40;;
57249;SDS011;43102;52.014;-0.680;2022-11-21T01:26:03;7.50;;;3.40;;
57249;SDS011;43102;52.014;-0.680;2022-11-21T01:27:00;7.50;;;3.40;;
57249;SDS011;43102;52.014;-0.680;2022-11-21T01:28:00;7.50;;;3.40;;
57249;SDS011;43102;52.014;-0.680;2022-11-21T01:29:00;7.50;;;3.40;;
57249;SDS011;43102;52.014;-0.680;2022-11-21T01:30:00;7.50;;;3.40;;
57249;SDS011;43102;52.014;-0.680;2022-11-21T01:31:11;7.50;;;3.40;;
57249;SDS011;43102;52.014;-0.680;2022-11-21T01:32:00;7.50;;;3.40;;
57249;SDS011;43102;52.014;-0.680;2022-11-21T01:33:00;7.50;;;3.40;;
57249;SDS011;43102;52.014;-0.680;2022-11-21T01:34:00;7.50;;;3.40;;
57249;SDS011;43102;52.014;-0.680;2022-11-21T01:35:00;7.50;;;3.40;;
57249;SDS011;43102;52.014;-0.680;2022-11-21T01:37:01;7.50;;;3.40;;
57249;SDS011;43102;52.014;-0.680;2022-11-21T01:38:00;7.50;;;3.40;;
57249;SDS011;43102;52.014;-0.680;2022-11-21T01:39:03;7.50;;;3.40;;
57249;SDS011;43102;52.014;-0.680;2022-11-21T01:40:00;7.30;;;4.10;;
57249;SDS011;43102;52.014;-0.680;2022-11-21T01:41:00;7.30;;;4.10;;
57249;SDS011;43102;52.014;-0.680;2022-11-21T01:42:00;7.30;;;4.10;;
57249;SDS011;43102;52.014;-0.680;2022-11-21T01:43:08;7.30;;;4.10;;
57249;SDS011;43102;52.014;-0.680;2022-11-21T01:44:01;7.30;;;4.10;;
57249;SDS011;43102;52.014;-0.680;2022-11-21T01:45:00;7.30;;;4.10;;
57249;SDS011;43102;52.014;-0.680;2022-11-21T01:47:00;7.30;;;4.10;;
57249;SDS011;43102;52.014;-0.680;2022-11-21T01:48:00;7.30;;;4.10;;
57249;SDS011;43102;52.014;-0.680;2022-11-21T01:49:13;7.30;;;4.10;;
57249;SDS011;43102;52.014;-0.680;2022-11-21T01:50:00;7.30;;;4.10;;
57249;SDS011;43102;52.014;-0.680;2022-11-21T01:51:06;7.30;;;4.10;;
57249;SDS011;43102;52.014;-0.680;2022-11-21T01:52:15;7.30;;;4.10;;
57249;SDS011;43102;52.014;-0.680;2022-11-21T01:53:00;7.30;;;4.10;;
57249;SDS011;43102;52.014;-0.680;2022-11-21T01:54:13;7.30;;;4.10;;
57249;SDS011;43102;52.014;-0.680;2022-11-21T01:55:02;7.30;;;4.10;;
57249;SDS011;43102;52.014;-0.680;2022-11-21T01:56:00;7.30;;;4.10;;
57249;SDS011;43102;52.014;-0.680;2022-11-21T01:58:00;7.30;;;4.10;;
57249;SDS011;43102;52.014;-0.680;2022-11-21T01:59:01;7.30;;;4.10;;
57249;SDS011;43102;52.014;-0.680;2022-11-21T02:01:01;7.30;;;4.10;;
57249;SDS011;43102;52.014;-0.680;2022-11-21T02:02:02;7.30;;;4.10;;
57249;SDS011;43102;52.014;-0.680;2022-11-21T02:03:05;7.30;;;4.10;;
57249;SDS011;43102;52.014;-0.680;2022-11-21T02:04:02;7.30;;;4.10;;
57249;SDS011;43102;52.014;-0.680;2022-11-21T02:05:02;7.30;;;4.10;;
57249;SDS011;43102;52.014;-0.680;2022-11-21T02:06:00;7.30;;;4.10;;
57249;SDS011;43102;52.014;-0.680;2022-11-21T02:07:04;7.30;;;4.10;;
57249;SDS011;43102;52.014;-0.680;2022-11-21T02:08:04;7.30;;;4.10;;
57249;SDS011;43102;52.014;-0.680;2022-11-21T02:09:00;7.30;;;4.10;;
57249;SDS011;43102;52.014;-0.680;2022-11-21T02:10:01;7.90;;;3.20;;
57249;SDS011;43102;52.014;-0.680;2022-11-21T02:11:15;7.90;;;3.20;;
57249;SDS011;43102;52.014;-0.680;2022-11-21T02:12:05;7.90;;;3.20;;
57249;SDS011;43102;52.014;-0.680;2022-11-21T02:13:01;7.90;;;3.20;;
57249;SDS011;43102;52.014;-0.680;2022-11-21T02:14:00;7.90;;;3.20;;
57249;SDS011;43102;52.014;-0.680;2022-11-21T02:15:00;7.90;;;3.20;;
57249;SDS011;43102;52.014;-0.680;2022-11-21T02:16:01;7.90;;;3.20;;
57249;SDS011;43102;52.014;-0.680;2022-11-21T02:17:05;7.90;;;3.20;;
57249;SDS011;43102;52.014;-0.680;2022-11-21T02:18:00;7.90;;;3.20;;
57249;SDS011;43102;52.014;-0.680;2022-11-21T02:19:00;7.90;;;3.20;;
57249;SDS011;43102;52.014;-0.680;2022-11-21T02:20:03;7.90;;;3.20;;
57249;SDS011;43102;52.014;-0.680;2022-11-21T02:21:09;7.90;;;3.20;;
57249;SDS011;43102;52.014;-0.680;2022-11-21T02:22:05;7.90;;;3.20;;
57249;SDS011;43102;52.014;-0.680;2022-11-21T02:23:09;7.90;;;3.20;;
57249;SDS011;43102;52.014;-0.680;2022-11-21T02:24:07;7.90;;;3.20;;
57249;SDS011;43102;52.014;-0.680;2022-11-21T02:25:01;7.90;;;3.20;;
57249;SDS011;43102;52.014;-0.680;2022-11-21T02:26:00;7.90;;;3.20;;
57249;SDS011;43102;52.014;-0.680;2022-11-21T02:27:00;7.90;;;3.20;;
57249;SDS011;43102;52.014;-0.680;2022-11-21T02:28:02;7.90;;;3.20;;
57249;SDS011;43102;52.014;-0.680;2022-11-21T02:29:00;7.90;;;3.20;;
57249;SDS011;43102;52.014;-0.680;2022-11-21T02:30:01;7.90;;;3.20;;
57249;SDS011;43102;52.014;-0.680;2022-11-21T02:31:00;7.90;;;3.20;;
57249;SDS011;43102;52.014;-0.680;2022-11-21T02:32:04;7.90;;;3.20;;
57249;SDS011;43102;52.014;-0.680;2022-11-21T02:33:00;7.90;;;3.20;;
57249;SDS011;43102;52.014;-0.680;2022-11-21T02:34:00;7.90;;;3.20;;
57249;SDS011;43102;52.014;-0.680;2022-11-21T02:35:00;7.90;;;3.20;;
57249;SDS011;43102;52.014;-0.680;2022-11-21T02:36:01;7.90;;;3.20;;
57249;SDS011;43102;52.014;-0.680;2022-11-21T02:37:00;7.90;;;3.20;;
57249;SDS011;43102;52.014;-0.680;2022-11-21T02:38:04;7.90;;;3.20;;
57249;SDS011;43102;52.014;-0.680;2022-11-21T02:39:00;7.90;;;3.20;;
57249;SDS011;43102;52.014;-0.680;2022-11-21T02:40:04;6.30;;;3.20;;
57249;SDS011;43102;52.014;-0.680;2022-11-21T02:41:18;6.30;;;3.20;;
57249;SDS011;43102;52.014;-0.680;2022-11-21T02:43:06;6.30;;;3.20;;
57249;SDS011;43102;52.014;-0.680;2022-11-21T02:44:14;6.30;;;3.20;;
57249;SDS011;43102;52.014;-0.680;2022-11-21T02:45:20;6.30;;;3.20;;
57249;SDS011;43102;52.014;-0.680;2022-11-21T02:46:00;6.30;;;3.20;;
57249;SDS011;43102;52.014;-0.680;2022-11-21T02:47:00;6.30;;;3.20;;
57249;SDS011;43102;52.014;-0.680;2022-11-21T02:48:04;6.30;;;3.20;;
57249;SDS011;43102;52.014;-0.680;2022-11-21T02:49:03;6.30;;;3.20;;
57249;SDS011;43102;52.014;-0.680;2022-11-21T02:51:00;6.30;;;3.20;;
57249;SDS011;43102;52.014;-0.680;2022-11-21T02:52:00;6.30;;;3.20;;
57249;SDS011;43102;52.014;-0.680;2022-11-21T02:53:01;6.30;;;3.20;;
57249;SDS011;43102;52.014;-0.680;2022-11-21T02:54:00;6.30;;;3.20;;
57249;SDS011;43102;52.014;-0.680;2022-11-21T02:55:00;6.30;;;3.20;;
57249;SDS011;43102;52.014;-0.680;2022-11-21T02:56:00;6.30;;;3.20;;
57249;SDS011;43102;52.014;-0.680;2022-11-21T02:57:00;6.30;;;3.20;;
57249;SDS011;43102;52.014;-0.680;2022-11-21T02:58:05;6.30;;;3.20;;
57249;SDS011;43102;52.014;-0.680;2022-11-21T02:59:00;6.30;;;3.20;;
57249;SDS011;43102;52.014;-0.680;2022-11-21T03:00:00;6.30;;;3.20;;
57249;SDS011;43102;52.014;-0.680;2022-11-21T03:01:00;6.30;;;3.20;;
57249;SDS011;43102;52.014;-0.680;2022-11-21T03:02:01;6.30;;;3.20;;
57249;SDS011;43102;52.014;-0.680;2022-11-21T03:03:00;6.30;;;3.20;;
57249;SDS011;43102;52.014;-0.680;2022-11-21T03:04:00;6.30;;;3.20;;
57249;SDS011;43102;52.014;-0.680;2022-11-21T03:05:00;6.30;;;3.20;;
57249;SDS011;43102;52.014;-0.680;2022-11-21T03:06:00;6.30;;;3.20;;
57249;SDS011;43102;52.014;-0.680;2022-11-21T03:07:00;6.30;;;3.20;;
57249;SDS011;43102;52.014;-0.680;2022-11-21T03:08:00;6.30;;;3.20;;
57249;SDS011;43102;52.014;-0.680;2022-11-21T03:09:00;6.30;;;3.20;;
57249;SDS011;43102;52.014;-0.680;2022-11-21T03:10:00;4.80;;;2.60;;
57249;SDS011;43102;52.014;-0.680;2022-11-21T03:11:00;4.80;;;2.60;;
57249;SDS011;43102;52.014;-0.680;2022-11-21T03:12:05;4.80;;;2.60;;
57249;SDS011;43102;52.014;-0.680;2022-11-21T03:13:00;4.80;;;2.60;;
57249;SDS011;43102;52.014;-0.680;2022-11-21T03:14:00;4.80;;;2.60;;
57249;SDS011;43102;52.014;-0.680;2022-11-21T03:15:00;4.80;;;2.60;;
57249;SDS011;43102;52.014;-0.680;2022-11-21T03:16:00;4.80;;;2.60;;
57249;SDS011;43102;52.014;-0.680;2022-11-21T03:17:00;4.80;;;2.60;;
57249;SDS011;43102;52.014;-0.680;2022-11-21T03:18:02;4.80;;;2.60;;
57249;SDS011;43102;52.014;-0.680;2022-11-21T03:19:00;4.80;;;2.60;;
57249;SDS011;43102;52.014;-0.680;2022-11-21T03:20:00;4.80;;;2.60;;
57249;SDS011;43102;52.014;-0.680;2022-11-21T03:21:00;4.80;;;2.60;;
57249;SDS011;43102;52.014;-0.680;2022-11-21T03:22:00;4.80;;;2.60;;
57249;SDS011;43102;52.014;-0.680;2022-11-21T03:23:00;4.80;;;2.60;;
57249;SDS011;43102;52.014;-0.680;2022-11-21T03:24:00;4.80;;;2.60;;
57249;SDS011;43102;52.014;-0.680;2022-11-21T03:25:00;4.80;;;2.60;;
57249;SDS011;43102;52.014;-0.680;2022-11-21T03:26:00;4.80;;;2.60;;
57249;SDS011;43102;52.014;-0.680;2022-11-21T03:27:00;4.80;;;2.60;;
57249;SDS011;43102;52.014;-0.680;2022-11-21T03:28:00;4.80;;;2.60;;
57249;SDS011;43102;52.014;-0.680;2022-11-21T03:29:00;4.80;;;2.60;;
57249;SDS011;43102;52.014;-0.680;2022-11-21T03:30:00;4.80;;;2.60;;
57249;SDS011;43102;52.014;-0.680;2022-11-21T03:31:00;4.80;;;2.60;;
57249;SDS011;43102;52.014;-0.680;2022-11-21T03:32:00;4.80;;;2.60;;
57249;SDS011;43102;52.014;-0.680;2022-11-21T03:33:00;4.80;;;2.60;;
57249;SDS011;43102;52.014;-0.680;2022-11-21T03:34:01;4.80;;;2.60;;
57249;SDS011;43102;52.014;-0.680;2022-11-21T03:35:00;4.80;;;2.60;;
57249;SDS011;43102;52.014;-0.680;2022-11-21T03:36:00;4.80;;;2.60;;
57249;SDS011;43102;52.014;-0.680;2022-11-21T03:37:00;4.80;;;2.60;;
57249;SDS011;43102;52.014;-0.680;2022-11-21T03:38:00;4.80;;;2.60;;
57249;SDS011;43102;52.014;-0.680;2022-11-21T03:39:00;4.80;;;2.60;;
57249;SDS011;43102;52.014;-0.680;2022-11-21T03:40:00;8.30;;;3.50;;
57249;SDS011;43102;52.014;-0.680;2022-11-21T03:41:04;8.30;;;3.50;;
57249;SDS011;43102;52.014;-0.680;2022-11-21T03:42:00;8.30;;;3.50;;
57249;SDS011;43102;52.014;-0.680;2022-11-21T03:43:04;8.30;;;3.50;;
57249;SDS011;43102;52.014;-0.680;2022-11-21T03:44:02;8.30;;;3.50;;
57249;SDS011;43102;52.014;-0.680;2022-11-21T03:45:00;8.30;;;3.50;;
57249;SDS011;43102;52.014;-0.680;2022-11-21T03:46:00;8.30;;;3.50;;
57249;SDS011;43102;52.014;-0.680;2022-11-21T03:47:00;8.30;;;3.50;;
57249;SDS011;43102;52.014;-0.680;2022-11-21T03:48:00;8.30;;;3.50;;
57249;SDS011;43102;52.014;-0.680;2022-11-21T03:49:00;8.30;;;3.50;;
57249;SDS011;43102;52.014;-0.680;2022-11-21T03:50:00;8.30;;;3.50;;
57249;SDS011;43102;52.014;-0.680;2022-11-21T03:51:00;8.30;;;3.50;;
57249;SDS011;43102;52.014;-0.680;2022-11-21T03:52:00;8.30;;;3.50;;
57249;SDS011;43102;52.014;-0.680;2022-11-21T03:53:00;8.30;;;3.50;;
57249;SDS011;43102;52.014;-0.680;2022-11-21T03:54:00;8.30;;;3.50;;
57249;SDS011;43102;52.014;-0.680;2022-11-21T03:55:00;8.30;;;3.50;;
57249;SDS011;43102;52.014;-0.680;2022-11-21T03:56:00;8.30;;;3.50;;
57249;SDS011;43102;52.014;-0.680;2022-11-21T03:57:00;8.30;;;3.50;;
57249;SDS011;43102;52.014;-0.680;2022-11-21T03:58:00;8.30;;;3.50;;
57249;SDS011;43102;52.014;-0.680;2022-11-21T03:59:00;8.30;;;3.50;;
57249;SDS011;43102;52.014;-0.680;2022-11-21T04:00:00;8.30;;;3.50;;
57249;SDS011;43102;52.014;-0.680;2022-11-21T04:01:00;8.30;;;3.50;;
57249;SDS011;43102;52.014;-0.680;2022-11-21T04:10:00;6.40;;;3.20;;
57249;SDS011;43102;52.014;-0.680;2022-11-21T04:11:00;6.40;;;3.20;;
57249;SDS011;43102;52.014;-0.680;2022-11-21T04:12:07;6.40;;;3.20;;
57249;SDS011;43102;52.014;-0.680;2022-11-21T04:13:00;6.40;;;3.20;;
57249;SDS011;43102;52.014;-0.680;2022-11-21T04:14:00;6.40;;;3.20;;
57249;SDS011;43102;52.014;-0.680;2022-11-21T04:15:00;6.40;;;3.20;;
57249;SDS011;43102;52.014;-0.680;2022-11-21T04:16:00;6.40;;;3.20;;
57249;SDS011;43102;52.014;-0.680;2022-11-21T04:17:00;6.40;;;3.20;;
57249;SDS011;43102;52.014;-0.680;2022-11-21T04:18:00;6.40;;;3.20;;
57249;SDS011;43102;52.014;-0.680;2022-11-21T04:19:00;6.40;;;3.20;;
57249;SDS011;43102;52.014;-0.680;2022-11-21T04:20:00;6.40;;;3.20;;
57249;SDS011;43102;52.014;-0.680;2022-11-21T04:21:02;6.40;;;3.20;;
57249;SDS011;43102;52.014;-0.680;2022-11-21T04:22:00;6.40;;;3.20;;
57249;SDS011;43102;52.014;-0.680;2022-11-21T04:23:00;6.40;;;3.20;;
57249;SDS011;43102;52.014;-0.680;2022-11-21T04:24:00;6.40;;;3.20;;
57249;SDS011;43102;52.014;-0.680;2022-11-21T04:25:00;6.40;;;3.20;;
57249;SDS011;43102;52.014;-0.680;2022-11-21T04:26:00;6.40;;;3.20;;
57249;SDS011;43102;52.014;-0.680;2022-11-21T04:27:00;6.40;;;3.20;;
57249;SDS011;43102;52.014;-0.680;2022-11-21T04:28:02;6.40;;;3.20;;
57249;SDS011;43102;52.014;-0.680;2022-11-21T04:29:00;6.40;;;3.20;;
57249;SDS011;43102;52.014;-0.680;2022-11-21T04:30:00;6.40;;;3.20;;
57249;SDS011;43102;52.014;-0.680;2022-11-21T04:31:11;6.40;;;3.20;;
57249;SDS011;43102;52.014;-0.680;2022-11-21T04:32:00;6.40;;;3.20;;
57249;SDS011;43102;52.014;-0.680;2022-11-21T04:33:00;6.40;;;3.20;;
57249;SDS011;43102;52.014;-0.680;2022-11-21T04:34:00;6.40;;;3.20;;
57249;SDS011;43102;52.014;-0.680;2022-11-21T04:35:00;6.40;;;3.20;;
57249;SDS011;43102;52.014;-0.680;2022-11-21T04:36:00;6.40;;;3.20;;
57249;SDS011;43102;52.014;-0.680;2022-11-21T04:37:00;6.40;;;3.20;;
57249;SDS011;43102;52.014;-0.680;2022-11-21T04:38:00;6.40;;;3.20;;
57249;SDS011;43102;52.014;-0.680;2022-11-21T04:39:00;6.40;;;3.20;;
57249;SDS011;43102;52.014;-0.680;2022-11-21T04:40:00;12.10;;;3.70;;
57249;SDS011;43102;52.014;-0.680;2022-11-21T04:41:00;12.10;;;3.70;;
57249;SDS011;43102;52.014;-0.680;2022-11-21T04:42:00;12.10;;;3.70;;
57249;SDS011;43102;52.014;-0.680;2022-11-21T04:43:00;12.10;;;3.70;;
57249;SDS011;43102;52.014;-0.680;2022-11-21T04:44:00;12.10;;;3.70;;
57249;SDS011;43102;52.014;-0.680;2022-11-21T04:45:00;12.10;;;3.70;;
57249;SDS011;43102;52.014;-0.680;2022-11-21T04:46:00;12.10;;;3.70;;
57249;SDS011;43102;52.014;-0.680;2022-11-21T04:47:05;12.10;;;3.70;;
57249;SDS011;43102;52.014;-0.680;2022-11-21T04:48:00;12.10;;;3.70;;
57249;SDS011;43102;52.014;-0.680;2022-11-21T04:49:00;12.10;;;3.70;;
57249;SDS011;43102;52.014;-0.680;2022-11-21T04:50:00;12.10;;;3.70;;
57249;SDS011;43102;52.014;-0.680;2022-11-21T04:51:00;12.10;;;3.70;;
57249;SDS011;43102;52.014;-0.680;2022-11-21T04:52:00;12.10;;;3.70;;
57249;SDS011;43102;52.014;-0.680;2022-11-21T04:53:00;12.10;;;3.70;;
57249;SDS011;43102;52.014;-0.680;2022-11-21T04:54:00;12.10;;;3.70;;
57249;SDS011;43102;52.014;-0.680;2022-11-21T04:55:00;12.10;;;3.70;;
57249;SDS011;43102;52.014;-0.680;2022-11-21T04:56:03;12.10;;;3.70;;
57249;SDS011;43102;52.014;-0.680;2022-11-21T04:57:00;12.10;;;3.70;;
57249;SDS011;43102;52.014;-0.680;2022-11-21T04:58:00;12.10;;;3.70;;
57249;SDS011;43102;52.014;-0.680;2022-11-21T04:59:01;12.10;;;3.70;;
57249;SDS011;43102;52.014;-0.680;2022-11-21T05:00:00;12.10;;;3.70;;
57249;SDS011;43102;52.014;-0.680;2022-11-21T05:01:08;12.10;;;3.70;;
57249;SDS011;43102;52.014;-0.680;2022-11-21T05:02:01;12.10;;;3.70;;
57249;SDS011;43102;52.014;-0.680;2022-11-21T05:03:03;12.10;;;3.70;;
57249;SDS011;43102;52.014;-0.680;2022-11-21T05:04:00;12.10;;;3.70;;
57249;SDS011;43102;52.014;-0.680;2022-11-21T05:05:00;12.10;;;3.70;;
57249;SDS011;43102;52.014;-0.680;2022-11-21T05:06:00;12.10;;;3.70;;
57249;SDS011;43102;52.014;-0.680;2022-11-21T05:07:00;12.10;;;3.70;;
57249;SDS011;43102;52.014;-0.680;2022-11-21T05:08:00;12.10;;;3.70;;
57249;SDS011;43102;52.014;-0.680;2022-11-21T05:09:00;12.10;;;3.70;;
57249;SDS011;43102;52.014;-0.680;2022-11-21T05:10:00;5.50;;;2.50;;
57249;SDS011;43102;52.014;-0.680;2022-11-21T05:11:10;5.50;;;2.50;;
57249;SDS011;43102;52.014;-0.680;2022-11-21T05:12:10;5.50;;;2.50;;
57249;SDS011;43102;52.014;-0.680;2022-11-21T05:13:10;5.50;;;2.50;;
57249;SDS011;43102;52.014;-0.680;2022-11-21T05:14:00;5.50;;;2.50;;
57249;SDS011;43102;52.014;-0.680;2022-11-21T05:15:00;5.50;;;2.50;;
57249;SDS011;43102;52.014;-0.680;2022-11-21T05:16:00;5.50;;;2.50;;
57249;SDS011;43102;52.014;-0.680;2022-11-21T05:17:00;5.50;;;2.50;;
57249;SDS011;43102;52.014;-0.680;2022-11-21T05:18:00;5.50;;;2.50;;
57249;SDS011;43102;52.014;-0.680;2022-11-21T05:19:00;5.50;;;2.50;;
57249;SDS011;43102;52.014;-0.680;2022-11-21T05:20:00;5.50;;;2.50;;
57249;SDS011;43102;52.014;-0.680;2022-11-21T05:21:01;5.50;;;2.50;;
57249;SDS011;43102;52.014;-0.680;2022-11-21T05:22:00;5.50;;;2.50;;
57249;SDS011;43102;52.014;-0.680;2022-11-21T05:23:00;5.50;;;2.50;;
57249;SDS011;43102;52.014;-0.680;2022-11-21T05:24:00;5.50;;;2.50;;
57249;SDS011;43102;52.014;-0.680;2022-11-21T05:25:00;5.50;;;2.50;;
57249;SDS011;43102;52.014;-0.680;2022-11-21T05:26:00;5.50;;;2.50;;
57249;SDS011;43102;52.014;-0.680;2022-11-21T05:27:00;5.50;;;2.50;;
57249;SDS011;43102;52.014;-0.680;2022-11-21T05:28:00;5.50;;;2.50;;
57249;SDS011;43102;52.014;-0.680;2022-11-21T05:29:00;5.50;;;2.50;;
57249;SDS011;43102;52.014;-0.680;2022-11-21T05:30:00;5.50;;;2.50;;
57249;SDS011;43102;52.014;-0.680;2022-11-21T05:31:00;5.50;;;2.50;;
57249;SDS011;43102;52.014;-0.680;2022-11-21T05:32:00;5.50;;;2.50;;
57249;SDS011;43102;52.014;-0.680;2022-11-21T05:33:00;5.50;;;2.50;;
57249;SDS011;43102;52.014;-0.680;2022-11-21T05:34:00;5.50;;;2.50;;
57249;SDS011;43102;52.014;-0.680;2022-11-21T05:35:00;5.50;;;2.50;;
57249;SDS011;43102;52.014;-0.680;2022-11-21T05:36:00;5.50;;;2.50;;
57249;SDS011;43102;52.014;-0.680;2022-11-21T05:37:00;5.50;;;2.50;;
57249;SDS011;43102;52.014;-0.680;2022-11-21T05:38:00;5.50;;;2.50;;
57249;SDS011;43102;52.014;-0.680;2022-11-21T05:39:00;5.50;;;2.50;;
57249;SDS011;43102;52.014;-0.680;2022-11-21T05:40:00;6.30;;;2.80;;
57249;SDS011;43102;52.014;-0.680;2022-11-21T05:41:00;6.30;;;2.80;;
57249;SDS011;43102;52.014;-0.680;2022-11-21T05:42:03;6.30;;;2.80;;
57249;SDS011;43102;52.014;-0.680;2022-11-21T05:43:10;6.30;;;2.80;;
57249;SDS011;43102;52.014;-0.680;2022-11-21T05:44:00;6.30;;;2.80;;
57249;SDS011;43102;52.014;-0.680;2022-11-21T05:45:00;6.30;;;2.80;;
57249;SDS011;43102;52.014;-0.680;2022-11-21T05:51:00;6.30;;;2.80;;
57249;SDS011;43102;52.014;-0.680;2022-11-21T05:52:00;6.30;;;2.80;;
57249;SDS011;43102;52.014;-0.680;2022-11-21T05:53:02;6.30;;;2.80;;
57249;SDS011;43102;52.014;-0.680;2022-11-21T05:54:00;6.30;;;2.80;;
57249;SDS011;43102;52.014;-0.680;2022-11-21T05:55:00;6.30;;;2.80;;
57249;SDS011;43102;52.014;-0.680;2022-11-21T05:56:02;6.30;;;2.80;;
57249;SDS011;43102;52.014;-0.680;2022-11-21T05:57:00;6.30;;;2.80;;
57249;SDS011;43102;52.014;-0.680;2022-11-21T05:58:00;6.30;;;2.80;;
57249;SDS011;43102;52.014;-0.680;2022-11-21T05:59:00;6.30;;;2.80;;
57249;SDS011;43102;52.014;-0.680;2022-11-21T06:00:00;6.30;;;2.80;;
57249;SDS011;43102;52.014;-0.680;2022-11-21T06:01:00;6.30;;;2.80;;
57249;SDS011;43102;52.014;-0.680;2022-11-21T06:02:10;6.30;;;2.80;;
57249;SDS011;43102;52.014;-0.680;2022-11-21T06:03:10;6.30;;;2.80;;
57249;SDS011;43102;52.014;-0.680;2022-11-21T06:04:00;6.30;;;2.80;;
57249;SDS011;43102;52.014;-0.680;2022-11-21T06:05:00;6.30;;;2.80;;
57249;SDS011;43102;52.014;-0.680;2022-11-21T06:06:11;6.30;;;2.80;;
57249;SDS011;43102;52.014;-0.680;2022-11-21T06:07:00;6.30;;;2.80;;
57249;SDS011;43102;52.014;-0.680;2022-11-21T06:08:00;6.30;;;2.80;;
57249;SDS011;43102;52.014;-0.680;2022-11-21T06:09:00;6.30;;;2.80;;
57249;SDS011;43102;52.014;-0.680;2022-11-21T06:10:00;11.90;;;3.90;;
57249;SDS011;43102;52.014;-0.680;2022-11-21T06:11:02;11.90;;;3.90;;
57249;SDS011;43102;52.014;-0.680;2022-11-21T06:12:00;11.90;;;3.90;;
57249;SDS011;43102;52.014;-0.680;2022-11-21T06:13:00;11.90;;;3.90;;
57249;SDS011;43102;52.014;-0.680;2022-11-21T06:14:00;11.90;;;3.90;;